createdAt,value
2018-04-17T00:01:04.169Z,7.28
2018-04-17T00:02:25.703Z,7.21
2018-04-17T00:03:47.821Z,7.24
2018-04-17T00:05:09.890Z,7.24
2018-04-17T00:06:31.944Z,7.3
2018-04-17T00:07:53.757Z,7.23
2018-04-17T00:09:15.552Z,7.28
2018-04-17T00:10:37.379Z,7.16
2018-04-17T00:11:58.926Z,7.27
2018-04-17T00:13:20.715Z,7.17
2018-04-17T00:14:42.774Z,7.24
2018-04-17T00:16:04.836Z,7.23
2018-04-17T00:17:26.367Z,7.27
2018-04-17T00:18:48.184Z,7.13
2018-04-17T00:20:10.240Z,7.27
2018-04-17T00:21:32.299Z,7.13
2018-04-17T00:22:53.316Z,7.23
2018-04-17T00:24:15.379Z,7.16
2018-04-17T00:25:37.197Z,7.17
2018-04-17T00:26:58.996Z,7.21
2018-04-17T00:28:21.057Z,7.23
2018-04-17T00:29:43.126Z,7.12
2018-04-17T00:31:04.652Z,7.16
2018-04-17T00:32:26.787Z,7.16
2018-04-17T00:33:48.589Z,7.07
2018-04-17T00:35:10.115Z,7.16
2018-04-17T00:36:31.385Z,7.03
2018-04-17T00:37:52.935Z,7.13
2018-04-17T00:39:15.000Z,7.09
2018-04-17T00:40:37.100Z,6.88
2018-04-17T00:41:59.197Z,6.98
2018-04-17T00:43:20.983Z,6.91
2018-04-17T00:44:42.249Z,6.84
2018-04-17T00:46:04.322Z,6.8
2018-04-17T00:47:26.141Z,6.85
2018-04-17T00:48:47.952Z,6.85
2018-04-17T00:50:09.752Z,6.79
2018-04-17T00:51:31.011Z,6.79
2018-04-17T00:52:53.068Z,6.66
2018-04-17T00:54:15.115Z,6.74
2018-04-17T00:55:37.169Z,6.67
2018-04-17T00:56:58.441Z,6.71
2018-04-17T00:58:20.510Z,6.71
2018-04-17T00:59:42.042Z,6.76
2018-04-17T01:01:03.845Z,6.64
2018-04-17T01:02:25.883Z,6.71
2018-04-17T01:03:47.691Z,6.66
2018-04-17T01:05:09.495Z,6.55
2018-04-17T01:06:31.562Z,6.56
2018-04-17T01:07:53.629Z,6.49
2018-04-17T01:09:15.699Z,6.56
2018-04-17T01:10:37.225Z,6.49
2018-04-17T01:11:59.281Z,6.48
2018-04-17T01:13:21.379Z,6.52
2018-04-17T01:14:42.913Z,6.49
2018-04-17T01:16:04.703Z,6.52
2018-04-17T01:17:26.776Z,6.51
2018-04-17T01:18:48.840Z,6.59
2018-04-17T01:20:10.899Z,6.59
2018-04-17T01:21:32.705Z,6.56
2018-04-17T01:22:54.516Z,6.64
2018-04-17T01:24:16.566Z,6.62
2018-04-17T01:25:38.363Z,6.59
2018-04-17T01:27:00.173Z,6.58
2018-04-17T01:28:21.981Z,6.56
2018-04-17T01:29:43.778Z,6.54
2018-04-17T01:31:05.573Z,6.58
2018-04-17T01:32:27.367Z,6.55
2018-04-17T01:33:49.417Z,6.52
2018-04-17T01:35:11.219Z,6.62
2018-04-17T01:36:33.284Z,6.64
2018-04-17T01:37:55.344Z,6.76
2018-04-17T01:39:16.874Z,6.61
2018-04-17T01:40:38.660Z,6.52
2018-04-17T01:42:00.451Z,6.51
2018-04-17T01:43:22.511Z,6.56
2018-04-17T01:44:44.564Z,6.55
2018-04-17T01:46:06.427Z,6.56
2018-04-17T01:47:28.237Z,6.48
2018-04-17T01:48:50.297Z,6.49
2018-04-17T01:50:12.097Z,6.37
2018-04-17T01:51:33.891Z,6.36
2018-04-17T01:52:55.680Z,6.28
2018-04-17T01:54:17.482Z,6.41
2018-04-17T01:55:39.334Z,6.36
2018-04-17T01:57:01.075Z,6.41
2018-04-17T01:58:22.608Z,6.37
2018-04-17T01:59:44.406Z,6.37
2018-04-17T02:01:06.479Z,6.41
2018-04-17T02:02:28.277Z,6.4
2018-04-17T02:03:50.074Z,6.34
2018-04-17T02:05:11.614Z,6.37
2018-04-17T02:06:33.144Z,6.4
2018-04-17T02:07:55.184Z,6.37
2018-04-17T02:09:16.720Z,6.36
2018-04-17T02:10:38.522Z,6.31
2018-04-17T02:12:00.594Z,6.38
2018-04-17T02:13:22.675Z,6.41
2018-04-17T02:14:44.455Z,6.38
2018-04-17T02:16:06.241Z,6.43
2018-04-17T02:17:28.300Z,6.4
2018-04-17T02:18:50.364Z,6.31
2018-04-17T02:20:12.420Z,6.21
2018-04-17T02:21:34.210Z,6.31
2018-04-17T02:22:55.487Z,6.21
2018-04-17T02:24:17.543Z,6.21
2018-04-17T02:25:39.344Z,6.21
2018-04-17T02:27:00.873Z,6.14
2018-04-17T02:28:22.671Z,6.19
2018-04-17T02:29:44.738Z,6.14
2018-04-17T02:31:06.794Z,6.17
2018-04-17T02:32:28.336Z,6.17
2018-04-17T02:33:50.139Z,6.09
2018-04-17T02:35:11.960Z,6.11
2018-04-17T02:36:34.037Z,6.11
2018-04-17T02:37:55.822Z,6.12
2018-04-17T02:39:17.369Z,6.14
2018-04-17T02:40:38.886Z,6.01
2018-04-17T02:42:00.686Z,6.03
2018-04-17T02:43:22.479Z,6.09
2018-04-17T02:44:44.265Z,6.04
2018-04-17T02:46:06.322Z,6.03
2018-04-17T02:47:28.157Z,5.99
2018-04-17T02:48:50.036Z,6.01
2018-04-17T02:50:11.832Z,6.04
2018-04-17T02:51:33.901Z,6.04
2018-04-17T02:52:55.963Z,5.97
2018-04-17T02:54:17.759Z,6.03
2018-04-17T02:55:39.553Z,5.97
2018-04-17T02:57:01.375Z,5.93
2018-04-17T02:58:22.919Z,6.04
2018-04-17T02:59:44.966Z,5.99
2018-04-17T03:01:06.758Z,6.01
2018-04-17T03:02:28.813Z,5.99
2018-04-17T03:03:50.603Z,6.03
2018-04-17T03:05:12.398Z,6.08
2018-04-17T03:06:33.938Z,5.96
2018-04-17T03:07:55.210Z,5.97
2018-04-17T03:09:17.271Z,5.9
2018-04-17T03:10:39.057Z,5.99
2018-04-17T03:12:00.838Z,6.03
2018-04-17T03:13:22.632Z,6.06
2018-04-17T03:14:44.686Z,6.11
2018-04-17T03:16:06.225Z,6.08
2018-04-17T03:17:27.751Z,5.96
2018-04-17T03:18:49.014Z,6.11
2018-04-17T03:20:10.800Z,6.09
2018-04-17T03:21:32.588Z,6.09
2018-04-17T03:22:54.401Z,6.06
2018-04-17T03:24:16.217Z,6.09
2018-04-17T03:25:37.754Z,6.11
2018-04-17T03:26:59.551Z,6.09
2018-04-17T03:28:21.600Z,6.12
2018-04-17T03:29:43.398Z,6.11
2018-04-17T03:31:05.186Z,6.03
2018-04-17T03:32:27.249Z,6.03
2018-04-17T03:33:49.045Z,6
2018-04-17T03:35:10.573Z,5.81
2018-04-17T03:36:32.113Z,5.82
2018-04-17T03:37:54.172Z,5.91
2018-04-17T03:39:15.716Z,6.01
2018-04-17T03:40:37.509Z,5.99
2018-04-17T03:41:59.582Z,5.9
2018-04-17T03:43:21.384Z,5.83
2018-04-17T03:44:43.426Z,5.85
2018-04-17T03:46:05.491Z,5.91
2018-04-17T03:47:27.591Z,5.89
2018-04-17T03:48:49.113Z,5.85
2018-04-17T03:50:10.917Z,5.94
2018-04-17T03:51:32.984Z,5.83
2018-04-17T03:52:54.510Z,5.94
2018-04-17T03:54:16.575Z,5.79
2018-04-17T03:55:38.105Z,5.82
2018-04-17T03:56:59.920Z,5.83
2018-04-17T03:58:21.702Z,5.89
2018-04-17T03:59:43.768Z,5.89
2018-04-17T04:01:05.825Z,5.96
2018-04-17T04:02:27.895Z,5.96
2018-04-17T04:03:49.713Z,5.94
2018-04-17T04:05:11.505Z,6.06
2018-04-17T04:06:33.060Z,6.01
2018-04-17T04:07:54.841Z,6
2018-04-17T04:09:16.619Z,6.09
2018-04-17T04:10:38.745Z,6.17
2018-04-17T04:12:00.788Z,6.21
2018-04-17T04:13:22.836Z,6.3
2018-04-17T04:14:44.691Z,6.49
2018-04-17T04:16:06.763Z,6.61
2018-04-17T04:17:28.854Z,6.67
2018-04-17T04:18:50.897Z,6.76
2018-04-17T04:20:12.957Z,6.84
2018-04-17T04:21:34.751Z,6.87
2018-04-17T04:22:56.795Z,6.84
2018-04-17T04:24:18.324Z,6.8
2018-04-17T04:25:40.381Z,6.87
2018-04-17T04:27:01.942Z,6.8
2018-04-17T04:28:24.030Z,6.76
2018-04-17T04:29:46.085Z,6.87
2018-04-17T04:31:07.878Z,6.94
2018-04-17T04:32:29.969Z,6.98
2018-04-17T04:33:51.505Z,7.02
2018-04-17T04:35:13.565Z,7.09
2018-04-17T04:36:35.356Z,7.16
2018-04-17T04:37:56.908Z,7.21
2018-04-17T04:39:18.464Z,7.21
2018-04-17T04:40:39.987Z,7.3
2018-04-17T04:42:02.048Z,7.4
2018-04-17T04:43:23.849Z,7.48
2018-04-17T04:44:45.924Z,7.48
2018-04-17T04:46:07.988Z,7.5
2018-04-17T04:47:29.792Z,7.57
2018-04-17T04:48:51.328Z,7.6
2018-04-17T04:50:13.123Z,7.72
2018-04-17T04:51:35.177Z,7.72
2018-04-17T04:52:56.699Z,7.82
2018-04-17T04:54:18.501Z,7.82
2018-04-17T04:55:40.036Z,7.9
2018-04-17T04:57:01.834Z,7.92
2018-04-17T04:58:23.641Z,7.97
2018-04-17T04:59:45.440Z,8
2018-04-17T05:01:07.496Z,8
2018-04-17T05:02:29.567Z,8.12
2018-04-17T05:03:51.624Z,8.2
2018-04-17T05:05:13.733Z,8.18
2018-04-17T05:06:35.801Z,8.29
2018-04-17T05:07:57.604Z,8.33
2018-04-17T05:09:19.674Z,8.3
2018-04-17T05:10:41.489Z,8.48
2018-04-17T05:12:03.580Z,8.45
2018-04-17T05:13:25.383Z,8.63
2018-04-17T05:14:47.443Z,8.79
2018-04-17T05:16:09.506Z,8.83
2018-04-17T05:17:31.303Z,8.98
2018-04-17T05:18:53.404Z,8.98
2018-04-17T05:20:15.213Z,9.04
2018-04-17T05:21:37.013Z,9.08
2018-04-17T05:22:58.807Z,9.2
2018-04-17T05:24:20.868Z,9.31
2018-04-17T05:25:42.670Z,9.31
2018-04-17T05:27:04.740Z,9.39
2018-04-17T05:28:26.536Z,9.42
2018-04-17T05:29:48.602Z,9.47
2018-04-17T05:31:10.657Z,9.47
2018-04-17T05:32:32.737Z,9.54
2018-04-17T05:33:54.539Z,9.57
2018-04-17T05:35:16.621Z,9.71
2018-04-17T05:36:38.414Z,9.87
2018-04-17T05:38:00.481Z,10.02
2018-04-17T05:39:22.018Z,10.22
2018-04-17T05:40:43.835Z,10.44
2018-04-17T05:42:05.904Z,10.51
2018-04-17T05:43:27.973Z,10.74
2018-04-17T05:44:49.784Z,10.88
2018-04-17T05:46:11.575Z,10.85
2018-04-17T05:47:33.643Z,11
2018-04-17T05:48:55.712Z,11.32
2018-04-17T05:50:17.579Z,11.33
2018-04-17T05:51:38.844Z,11.88
2018-04-17T05:53:00.643Z,12.41
2018-04-17T05:54:22.198Z,12.64
2018-04-17T05:55:44.062Z,12.95
2018-04-17T05:57:06.199Z,13.11
2018-04-17T05:58:28.266Z,13.51
2018-04-17T05:59:50.328Z,13.52
2018-04-17T06:01:12.406Z,13.57
2018-04-17T06:02:34.494Z,13.82
2018-04-17T06:03:56.285Z,13.81
2018-04-17T06:05:18.410Z,13.87
2018-04-17T06:06:40.500Z,14.28
2018-04-17T06:08:01.797Z,14.89
2018-04-17T06:09:23.589Z,14.84
2018-04-17T06:10:45.386Z,14.68
2018-04-17T06:12:07.226Z,14.64
2018-04-17T06:13:29.017Z,15.41
2018-04-17T06:14:51.161Z,15.75
2018-04-17T06:16:12.433Z,15.75
2018-04-17T06:17:34.502Z,15.69
2018-04-17T06:18:55.777Z,15.97
2018-04-17T06:20:17.844Z,16.7
2018-04-17T06:21:39.412Z,17.01
2018-04-17T06:23:00.957Z,18.35
2018-04-17T06:24:22.766Z,19.36
2018-04-17T06:25:44.574Z,19.76
2018-04-17T06:27:06.396Z,19.66
2018-04-17T06:28:28.202Z,19.18
2018-04-17T06:29:49.734Z,19.18
2018-04-17T06:31:11.282Z,19.88
2018-04-17T06:32:33.378Z,20.76
2018-04-17T06:33:55.441Z,21.31
2018-04-17T06:35:17.045Z,21.32
2018-04-17T06:36:39.126Z,22.02
2018-04-17T06:38:00.941Z,22.57
2018-04-17T06:39:22.769Z,23.09
2018-04-17T06:40:44.057Z,23.78
2018-04-17T06:42:05.999Z,24.32
2018-04-17T06:43:28.064Z,24.8
2018-04-17T06:44:50.139Z,25.09
2018-04-17T06:46:11.703Z,25.21
2018-04-17T06:47:33.419Z,25.54
2018-04-17T06:48:55.408Z,25.94
2018-04-17T06:50:17.222Z,26.25
2018-04-17T06:51:39.298Z,26.8
2018-04-17T06:53:01.437Z,27.18
2018-04-17T06:54:23.292Z,27.41
2018-04-17T06:55:45.111Z,27.19
2018-04-17T06:57:07.198Z,26.97
2018-04-17T06:58:29.269Z,26.94
2018-04-17T06:59:51.081Z,27.04
2018-04-17T07:01:12.912Z,27.59
2018-04-17T07:02:34.721Z,27.87
2018-04-17T07:03:56.813Z,27.99
2018-04-17T07:05:18.949Z,28.14
2018-04-17T07:06:40.770Z,28.36
2018-04-17T07:08:02.841Z,28.73
2018-04-17T07:09:24.927Z,28.96
2018-04-17T07:10:46.749Z,28.88
2018-04-17T07:12:08.826Z,29.02
2018-04-17T07:13:30.907Z,29.06
2018-04-17T07:14:52.198Z,29.33
2018-04-17T07:16:14.028Z,29.53
2018-04-17T07:17:36.120Z,29.74
2018-04-17T07:18:58.209Z,30.01
2018-04-17T07:20:20.015Z,30.13
2018-04-17T07:21:42.089Z,30.31
2018-04-17T07:23:04.157Z,30.15
2018-04-17T07:24:26.244Z,30.1
2018-04-17T07:25:48.314Z,29.95
2018-04-17T07:27:10.131Z,29.95
2018-04-17T07:28:32.220Z,29.87
2018-04-17T07:29:54.038Z,29.85
2018-04-17T07:31:16.121Z,29.6
2018-04-17T07:32:38.209Z,29.57
2018-04-17T07:34:00.017Z,29.65
2018-04-17T07:35:22.121Z,29.82
2018-04-17T07:36:44.193Z,29.92
2018-04-17T07:38:06.279Z,30.17
2018-04-17T07:39:28.350Z,29.79
2018-04-17T07:40:49.646Z,29.49
2018-04-17T07:42:11.201Z,28.85
2018-04-17T07:43:32.757Z,28.36
2018-04-17T07:44:54.577Z,28.39
2018-04-17T07:46:16.401Z,28.21
2018-04-17T07:47:38.258Z,28.07
2018-04-17T07:49:00.099Z,27.59
2018-04-17T07:50:22.158Z,27.13
2018-04-17T07:51:44.225Z,26.43
2018-04-17T07:53:06.052Z,25.58
2018-04-17T07:54:27.869Z,24.58
2018-04-17T07:55:49.200Z,23.32
2018-04-17T07:57:10.964Z,22.12
2018-04-17T07:58:32.795Z,21.03
2018-04-17T07:59:54.607Z,20.11
2018-04-17T08:01:16.419Z,19.55
2018-04-17T08:02:38.496Z,19.11
2018-04-17T08:04:00.040Z,18.75
2018-04-17T08:05:21.872Z,18.41
2018-04-17T08:06:43.691Z,18.27
2018-04-17T08:08:05.243Z,18.05
2018-04-17T08:09:26.845Z,18.08
2018-04-17T08:10:48.664Z,18.03
2018-04-17T08:12:10.752Z,18.1
2018-04-17T08:13:32.289Z,17.99
2018-04-17T08:14:54.107Z,17.95
2018-04-17T08:16:15.652Z,17.93
2018-04-17T08:17:37.520Z,17.97
2018-04-17T08:18:59.828Z,17.97
2018-04-17T08:20:21.900Z,17.96
2018-04-17T08:21:43.716Z,17.93
2018-04-17T08:23:05.792Z,17.9
2018-04-17T08:24:27.608Z,17.9
2018-04-17T08:25:49.439Z,17.96
2018-04-17T08:27:11.258Z,17.93
2018-04-17T08:28:33.346Z,18.05
2018-04-17T08:29:54.875Z,17.99
2018-04-17T08:31:16.948Z,18.1
2018-04-17T08:32:39.014Z,18.17
2018-04-17T08:34:01.104Z,18.3
2018-04-17T08:35:22.911Z,18.26
2018-04-17T08:36:44.713Z,18.35
2018-04-17T08:38:06.840Z,18.32
2018-04-17T08:39:28.646Z,18.26
2018-04-17T08:40:49.932Z,18.36
2018-04-17T08:42:11.490Z,18.33
2018-04-17T08:43:33.553Z,18.37
2018-04-17T08:44:55.613Z,18.33
2018-04-17T08:46:16.891Z,18.32
2018-04-17T08:47:38.969Z,18.33
2018-04-17T08:49:00.580Z,18.3
2018-04-17T08:50:22.634Z,18.32
2018-04-17T08:51:44.171Z,18.27
2018-04-17T08:53:05.969Z,18.33
2018-04-17T08:54:28.124Z,18.29
2018-04-17T08:55:50.211Z,18.27
2018-04-17T08:57:12.278Z,18.39
2018-04-17T08:58:34.074Z,18.37
2018-04-17T08:59:55.894Z,18.42
2018-04-17T09:01:17.710Z,18.42
2018-04-17T09:02:39.244Z,18.55
2018-04-17T09:04:00.817Z,18.52
2018-04-17T09:05:23.020Z,18.52
2018-04-17T09:06:45.094Z,18.51
2018-04-17T09:08:07.173Z,18.57
2018-04-17T09:09:28.710Z,18.63
2018-04-17T09:10:50.785Z,18.75
2018-04-17T09:12:12.872Z,18.82
2018-04-17T09:13:34.430Z,18.81
2018-04-17T09:14:56.526Z,18.91
2018-04-17T09:16:18.346Z,18.84
2018-04-17T09:17:39.890Z,18.66
2018-04-17T09:19:01.752Z,18.76
2018-04-17T09:20:23.818Z,18.84
2018-04-17T09:21:45.884Z,18.9
2018-04-17T09:23:07.952Z,18.98
2018-04-17T09:24:30.030Z,18.95
2018-04-17T09:25:51.853Z,18.85
2018-04-17T09:27:13.919Z,18.99
2018-04-17T09:28:35.746Z,19.16
2018-04-17T09:29:57.826Z,19.32
2018-04-17T09:31:19.623Z,19.32
2018-04-17T09:32:41.424Z,19.33
2018-04-17T09:34:03.518Z,19.32
2018-04-17T09:35:25.338Z,19.47
2018-04-17T09:36:46.878Z,19.43
2018-04-17T09:38:08.685Z,19.46
2018-04-17T09:39:29.975Z,19.54
2018-04-17T09:40:51.524Z,19.5
2018-04-17T09:42:13.061Z,19.4
2018-04-17T09:43:35.138Z,19.54
2018-04-17T09:44:56.953Z,19.59
2018-04-17T09:46:19.036Z,19.73
2018-04-17T09:47:40.844Z,19.96
2018-04-17T09:49:02.644Z,20.11
2018-04-17T09:50:24.439Z,20.36
2018-04-17T09:51:46.287Z,20.36
2018-04-17T09:53:08.370Z,20.41
2018-04-17T09:54:30.421Z,20.13
2018-04-17T09:55:52.487Z,20.03
2018-04-17T09:57:14.591Z,20.03
2018-04-17T09:58:36.437Z,20.01
2018-04-17T09:59:58.246Z,20.06
2018-04-17T10:01:20.311Z,20.26
2018-04-17T10:02:42.134Z,20.33
2018-04-17T10:04:03.959Z,20.38
2018-04-17T10:05:26.024Z,20.58
2018-04-17T10:06:48.089Z,20.61
2018-04-17T10:08:10.148Z,20.8
2018-04-17T10:09:31.963Z,20.73
2018-04-17T10:10:53.775Z,20.59
2018-04-17T10:12:15.605Z,20.74
2018-04-17T10:13:37.143Z,21.06
2018-04-17T10:14:58.944Z,21.14
2018-04-17T10:16:21.028Z,21.17
2018-04-17T10:17:42.839Z,21.13
2018-04-17T10:19:04.651Z,21.24
2018-04-17T10:20:26.458Z,21.19
2018-04-17T10:21:48.267Z,21.25
2018-04-17T10:23:10.335Z,21.31
2018-04-17T10:24:32.130Z,21.29
2018-04-17T10:25:53.946Z,21.42
2018-04-17T10:27:15.773Z,21.31
2018-04-17T10:28:37.626Z,21.28
2018-04-17T10:29:59.705Z,21.44
2018-04-17T10:31:21.798Z,21.32
2018-04-17T10:32:43.599Z,21.32
2018-04-17T10:34:05.680Z,21.34
2018-04-17T10:35:27.746Z,21.46
2018-04-17T10:36:49.816Z,21.24
2018-04-17T10:38:11.899Z,21.16
2018-04-17T10:39:33.697Z,21.14
2018-04-17T10:40:55.843Z,21.14
2018-04-17T10:42:17.401Z,21.21
2018-04-17T10:43:39.213Z,21.19
2018-04-17T10:45:01.284Z,21.17
2018-04-17T10:46:22.818Z,21.25
2018-04-17T10:47:45.046Z,21.14
2018-04-17T10:49:07.120Z,21.16
2018-04-17T10:50:28.944Z,21.17
2018-04-17T10:51:51.017Z,21.31
2018-04-17T10:53:13.111Z,21.4
2018-04-17T10:54:35.213Z,21.52
2018-04-17T10:55:57.025Z,21.53
2018-04-17T10:57:18.831Z,21.34
2018-04-17T10:58:40.663Z,21.35
2018-04-17T11:00:01.949Z,21.44
2018-04-17T11:01:23.748Z,21.52
2018-04-17T11:02:45.555Z,21.42
2018-04-17T11:04:07.207Z,21.34
2018-04-17T11:05:29.026Z,21.47
2018-04-17T11:06:50.830Z,21.56
2018-04-17T11:08:12.637Z,21.72
2018-04-17T11:09:34.721Z,21.75
2018-04-17T11:10:56.530Z,21.88
2018-04-17T11:12:18.584Z,22.03
2018-04-17T11:13:40.672Z,22.06
2018-04-17T11:15:02.503Z,22.09
2018-04-17T11:16:24.384Z,22.02
2018-04-17T11:17:46.466Z,22.03
2018-04-17T11:19:08.271Z,21.91
2018-04-17T11:20:29.558Z,21.68
2018-04-17T11:21:51.626Z,21.64
2018-04-17T11:23:13.827Z,21.59
2018-04-17T11:24:35.909Z,21.69
2018-04-17T11:25:57.712Z,21.88
2018-04-17T11:27:19.529Z,21.86
2018-04-17T11:28:41.607Z,21.96
2018-04-17T11:30:03.407Z,21.98
2018-04-17T11:31:25.228Z,21.86
2018-04-17T11:32:47.049Z,21.8
2018-04-17T11:34:08.859Z,21.69
2018-04-17T11:35:30.934Z,21.69
2018-04-17T11:36:52.752Z,21.61
2018-04-17T11:38:14.567Z,21.58
2018-04-17T11:39:36.374Z,21.58
2018-04-17T11:40:58.207Z,21.62
2018-04-17T11:42:20.305Z,21.62
2018-04-17T11:43:41.869Z,21.61
2018-04-17T11:45:03.973Z,21.43
2018-04-17T11:46:25.816Z,21.35
2018-04-17T11:47:47.639Z,21.28
2018-04-17T11:49:09.712Z,21.38
2018-04-17T11:50:31.274Z,21.32
2018-04-17T11:51:53.381Z,21.21
2018-04-17T11:53:15.473Z,21.16
2018-04-17T11:54:37.558Z,21.01
2018-04-17T11:55:59.649Z,21.04
2018-04-17T11:57:21.748Z,20.99
2018-04-17T11:58:43.385Z,21.04
2018-04-17T12:00:05.189Z,21.14
2018-04-17T12:01:27.264Z,21.21
2018-04-17T12:02:49.093Z,21.14
2018-04-17T12:04:11.186Z,21.21
2018-04-17T12:05:32.743Z,21.24
2018-04-17T12:06:54.811Z,21.12
2018-04-17T12:08:16.627Z,21.01
2018-04-17T12:09:38.171Z,21.17
2018-04-17T12:11:00.256Z,21.19
2018-04-17T12:12:22.349Z,21.16
2018-04-17T12:13:44.155Z,21.12
2018-04-17T12:15:06.242Z,21.04
2018-04-17T12:16:28.059Z,21.07
2018-04-17T12:17:50.168Z,20.88
2018-04-17T12:19:12.023Z,20.82
2018-04-17T12:20:33.926Z,20.59
2018-04-17T12:21:55.475Z,20.48
2018-04-17T12:23:17.614Z,20.28
2018-04-17T12:24:39.684Z,20.51
2018-04-17T12:26:01.575Z,20.57
2018-04-17T12:27:23.383Z,20.73
2018-04-17T12:28:45.196Z,20.92
2018-04-17T12:30:07.294Z,20.91
2018-04-17T12:31:28.856Z,21.1
2018-04-17T12:32:50.663Z,21.14
2018-04-17T12:34:12.736Z,21.19
2018-04-17T12:35:34.806Z,21.17
2018-04-17T12:36:56.655Z,21.09
2018-04-17T12:38:18.775Z,21.22
2018-04-17T12:39:40.602Z,21.24
2018-04-17T12:41:02.679Z,21.21
2018-04-17T12:42:24.527Z,21.14
2018-04-17T12:43:46.359Z,21.13
2018-04-17T12:45:08.476Z,21.07
2018-04-17T12:46:30.290Z,21.01
2018-04-17T12:47:52.361Z,21.09
2018-04-17T12:49:14.517Z,21.07
2018-04-17T12:50:36.607Z,21.04
2018-04-17T12:51:58.491Z,21.13
2018-04-17T12:53:20.062Z,21.13
2018-04-17T12:54:42.154Z,21.12
2018-04-17T12:56:04.238Z,21.01
2018-04-17T12:57:26.055Z,20.99
2018-04-17T12:58:47.624Z,20.89
2018-04-17T13:00:09.735Z,20.89
2018-04-17T13:01:31.837Z,20.88
2018-04-17T13:02:53.723Z,20.89
2018-04-17T13:04:15.798Z,20.85
2018-04-17T13:05:37.894Z,20.87
2018-04-17T13:06:59.987Z,20.99
2018-04-17T13:08:21.539Z,20.94
2018-04-17T13:09:43.620Z,21.07
2018-04-17T13:11:05.722Z,21.13
2018-04-17T13:12:27.535Z,21.14
2018-04-17T13:13:49.367Z,21.22
2018-04-17T13:15:11.188Z,21.16
2018-04-17T13:16:33.011Z,21.27
2018-04-17T13:17:55.104Z,21.29
2018-04-17T13:19:16.672Z,21.34
2018-04-17T13:20:38.226Z,21.25
2018-04-17T13:22:00.299Z,21.17
2018-04-17T13:23:22.380Z,21.28
2018-04-17T13:24:44.459Z,21.28
2018-04-17T13:26:06.285Z,21.32
2018-04-17T13:27:28.098Z,21.29
2018-04-17T13:28:49.916Z,21.29
2018-04-17T13:30:11.993Z,21.24
2018-04-17T13:31:34.062Z,21.19
2018-04-17T13:32:55.873Z,21.31
2018-04-17T13:34:17.167Z,21.28
2018-04-17T13:35:38.975Z,21.38
2018-04-17T13:37:01.046Z,21.52
2018-04-17T13:38:22.975Z,21.56
2018-04-17T13:39:45.081Z,21.64
2018-04-17T13:41:07.149Z,21.67
2018-04-17T13:42:29.399Z,21.61
2018-04-17T13:43:51.509Z,21.56
2018-04-17T13:45:13.607Z,21.54
2018-04-17T13:46:35.695Z,21.43
2018-04-17T13:47:57.322Z,21.53
2018-04-17T13:49:19.414Z,21.49
2018-04-17T13:50:41.505Z,21.38
2018-04-17T13:52:03.614Z,21.31
2018-04-17T13:53:25.437Z,21.24
2018-04-17T13:54:47.251Z,21.17
2018-04-17T13:56:08.815Z,21.13
2018-04-17T13:57:30.897Z,21.17
2018-04-17T13:58:53.019Z,21.25
2018-04-17T14:00:15.111Z,21.13
2018-04-17T14:01:36.663Z,21.12
2018-04-17T14:02:58.514Z,21.01
2018-04-17T14:04:20.590Z,21.06
2018-04-17T14:05:42.445Z,20.92
2018-04-17T14:07:04.560Z,20.92
2018-04-17T14:08:26.637Z,21.04
2018-04-17T14:09:48.767Z,21.17
2018-04-17T14:11:10.748Z,21.14
2018-04-17T14:12:32.545Z,21.21
2018-04-17T14:13:54.633Z,21.21
2018-04-17T14:15:15.929Z,21.25
2018-04-17T14:16:37.756Z,21.16
2018-04-17T14:17:59.843Z,21.12
2018-04-17T14:19:21.913Z,21.16
2018-04-17T14:20:43.735Z,21.1
2018-04-17T14:22:05.826Z,20.97
2018-04-17T14:23:27.666Z,20.97
2018-04-17T14:24:49.777Z,21.06
2018-04-17T14:26:11.852Z,21.07
2018-04-17T14:27:33.976Z,21.14
2018-04-17T14:28:56.056Z,21.17
2018-04-17T14:30:18.134Z,21.17
2018-04-17T14:31:40.203Z,21.19
2018-04-17T14:33:02.303Z,21.19
2018-04-17T14:34:23.882Z,21.25
2018-04-17T14:35:45.968Z,21.31
2018-04-17T14:37:08.053Z,21.32
2018-04-17T14:38:30.156Z,21.5
2018-04-17T14:39:52.236Z,21.42
2018-04-17T14:41:14.336Z,21.49
2018-04-17T14:42:36.415Z,21.52
2018-04-17T14:43:58.485Z,21.43
2018-04-17T14:45:20.317Z,21.43
2018-04-17T14:46:42.429Z,21.44
2018-04-17T14:48:04.531Z,21.49
2018-04-17T14:49:26.649Z,21.53
2018-04-17T14:50:48.466Z,21.4
2018-04-17T14:52:10.539Z,21.46
2018-04-17T14:53:32.621Z,21.44
2018-04-17T14:54:54.438Z,21.46
2018-04-17T14:56:16.539Z,21.37
2018-04-17T14:57:38.389Z,21.38
2018-04-17T14:59:00.475Z,21.43
2018-04-17T15:00:22.329Z,21.53
2018-04-17T15:01:44.156Z,21.62
2018-04-17T15:03:05.978Z,21.68
2018-04-17T15:04:28.060Z,21.64
2018-04-17T15:05:49.900Z,21.56
2018-04-17T15:07:11.981Z,21.58
2018-04-17T15:08:33.837Z,21.67
2018-04-17T15:09:55.981Z,21.62
2018-04-17T15:11:17.843Z,21.46
2018-04-17T15:12:39.416Z,21.42
2018-04-17T15:14:01.295Z,21.46
2018-04-17T15:15:23.222Z,21.29
2018-04-17T15:16:45.034Z,21.32
2018-04-17T15:18:06.871Z,21.32
2018-04-17T15:19:28.964Z,21.32
2018-04-17T15:20:51.043Z,21.32
2018-04-17T15:22:13.160Z,21.32
2018-04-17T15:23:35.287Z,21.34
2018-04-17T15:24:57.473Z,21.27
2018-04-17T15:26:19.303Z,21.31
2018-04-17T15:27:41.423Z,21.43
2018-04-17T15:29:03.503Z,21.4
2018-04-17T15:30:25.606Z,21.43
2018-04-17T15:31:47.696Z,21.44
2018-04-17T15:33:09.525Z,21.34
2018-04-17T15:34:31.629Z,21.24
2018-04-17T15:35:53.459Z,21.13
2018-04-17T15:37:15.337Z,21.07
2018-04-17T15:38:37.461Z,20.98
2018-04-17T15:39:59.692Z,20.95
2018-04-17T15:41:21.652Z,20.89
2018-04-17T15:42:43.488Z,20.85
2018-04-17T15:44:05.605Z,20.79
2018-04-17T15:45:27.193Z,20.79
2018-04-17T15:46:49.278Z,20.77
2018-04-17T15:48:11.119Z,20.77
2018-04-17T15:49:33.235Z,20.84
2018-04-17T15:50:55.488Z,20.92
2018-04-17T15:52:17.325Z,20.92
2018-04-17T15:53:39.430Z,21.04
2018-04-17T15:55:01.519Z,21.17
2018-04-17T15:56:23.350Z,21.21
2018-04-17T15:57:45.477Z,21.31
2018-04-17T15:59:07.572Z,21.34
2018-04-17T16:00:29.694Z,21.42
2018-04-17T16:01:51.544Z,21.43
2018-04-17T16:03:13.656Z,21.56
2018-04-17T16:04:35.253Z,21.71
2018-04-17T16:05:57.382Z,21.62
2018-04-17T16:07:19.489Z,21.77
2018-04-17T16:08:41.660Z,21.72
2018-04-17T16:10:03.834Z,21.77
2018-04-17T16:11:25.739Z,21.77
2018-04-17T16:12:47.597Z,21.69
2018-04-17T16:14:09.795Z,21.68
2018-04-17T16:15:31.914Z,21.69
2018-04-17T16:16:54.041Z,21.64
2018-04-17T16:18:16.150Z,21.72
2018-04-17T16:19:38.256Z,21.67
2018-04-17T16:21:00.121Z,21.68
2018-04-17T16:22:22.247Z,21.65
2018-04-17T16:23:44.092Z,21.65
2018-04-17T16:25:05.685Z,21.67
2018-04-17T16:26:27.553Z,21.74
2018-04-17T16:27:49.414Z,21.77
2018-04-17T16:29:11.529Z,21.68
2018-04-17T16:30:33.373Z,21.74
2018-04-17T16:31:55.493Z,21.75
2018-04-17T16:33:17.435Z,21.61
2018-04-17T16:34:39.553Z,21.62
2018-04-17T16:36:01.670Z,21.59
2018-04-17T16:37:23.528Z,21.44
2018-04-17T16:38:45.657Z,21.49
2018-04-17T16:40:07.768Z,21.52
2018-04-17T16:41:29.348Z,21.43
2018-04-17T16:42:51.496Z,21.43
2018-04-17T16:44:13.626Z,21.35
2018-04-17T16:45:35.720Z,21.31
2018-04-17T16:46:57.835Z,21.13
2018-04-17T16:48:21.355Z,21.03
2018-04-17T16:49:43.469Z,20.98
2018-04-17T16:51:05.072Z,20.97
2018-04-17T16:52:27.218Z,20.89
2018-04-17T16:53:49.334Z,20.88
2018-04-17T16:55:11.494Z,20.74
2018-04-17T16:56:33.603Z,20.64
2018-04-17T16:57:55.729Z,20.55
2018-04-17T16:59:17.583Z,20.42
2018-04-17T17:00:39.461Z,20.35
2018-04-17T17:02:01.303Z,20.2
2018-04-17T17:03:23.429Z,20.18
2018-04-17T17:04:45.535Z,20.05
2018-04-17T17:06:07.659Z,20.01
2018-04-17T17:07:29.519Z,20.08
2018-04-17T17:08:51.370Z,19.91
2018-04-17T17:10:13.533Z,19.83
2018-04-17T17:11:35.642Z,19.74
2018-04-17T17:12:57.494Z,19.65
2018-04-17T17:14:19.337Z,19.65
2018-04-17T17:15:41.170Z,19.54
2018-04-17T17:17:03.281Z,19.48
2018-04-17T17:18:25.370Z,19.39
2018-04-17T17:19:47.458Z,19.4
2018-04-17T17:21:09.308Z,19.29
2018-04-17T17:22:31.153Z,19.21
2018-04-17T17:23:53.263Z,19.23
2018-04-17T17:25:15.110Z,19.07
2018-04-17T17:26:36.958Z,18.99
2018-04-17T17:27:58.782Z,19.04
2018-04-17T17:29:20.874Z,18.85
2018-04-17T17:30:42.969Z,18.75
2018-04-17T17:32:04.531Z,18.85
2018-04-17T17:33:26.372Z,18.76
2018-04-17T17:34:48.490Z,18.72
2018-04-17T17:36:10.572Z,18.63
2018-04-17T17:37:32.670Z,18.55
2018-04-17T17:38:54.253Z,18.52
2018-04-17T17:40:16.093Z,18.6
2018-04-17T17:41:37.961Z,18.55
2018-04-17T17:42:59.800Z,18.55
2018-04-17T17:44:21.989Z,18.62
2018-04-17T17:45:44.100Z,18.66
2018-04-17T17:47:05.941Z,18.58
2018-04-17T17:48:28.085Z,18.55